createdAt,value
2023-01-04T00:01:22.832Z,6.25
2023-01-04T00:03:50.046Z,6.97
2023-01-04T00:06:18.170Z,7.93
2023-01-04T00:08:45.002Z,8.13
2023-01-04T00:11:23.315Z,7.85
2023-01-04T00:13:55.405Z,6.65
2023-01-04T00:16:25.032Z,8.18
2023-01-04T00:18:53.703Z,7.10
2023-01-04T00:21:27.873Z,7.85
2023-01-04T00:24:01.310Z,6.97
2023-01-04T00:26:37.134Z,5.75
2023-01-04T00:29:11.322Z,6.47
2023-01-04T00:31:38.404Z,5.72
2023-01-04T00:34:06.695Z,6.97
2023-01-04T00:36:34.613Z,5.82
2023-01-04T00:39:12.421Z,5.97
2023-01-04T00:42:08.168Z,7.32
2023-01-04T00:44:35.613Z,6.63
2023-01-04T00:47:04.542Z,5.75
2023-01-04T00:49:31.956Z,5.18
2023-01-04T00:51:59.121Z,6.13
2023-01-04T00:54:26.591Z,10.00
2023-01-04T00:56:53.317Z,7.28
2023-01-04T00:59:22.179Z,6.18
2023-01-04T01:01:50.011Z,6.57
2023-01-04T01:04:21.264Z,9.07
2023-01-04T01:06:49.355Z,8.98
2023-01-04T01:09:16.593Z,9.68
2023-01-04T01:11:43.966Z,8.15
2023-01-04T01:14:19.036Z,7.65
2023-01-04T01:16:56.633Z,7.57
2023-01-04T01:19:27.745Z,8.80
2023-01-04T01:21:56.927Z,6.50
2023-01-04T01:24:23.730Z,5.45
2023-01-04T01:26:50.486Z,5.43
2023-01-04T01:29:17.319Z,5.07
2023-01-04T01:31:44.107Z,6.30
2023-01-04T01:34:10.910Z,5.68
2023-01-04T01:36:37.998Z,4.40
2023-01-04T01:39:06.241Z,4.35
2023-01-04T01:41:35.541Z,4.95
2023-01-04T01:44:42.578Z,3.63
2023-01-04T01:47:23.401Z,4.20
2023-01-04T01:49:54.420Z,3.90
2023-01-04T01:52:32.186Z,5.13
2023-01-04T01:55:03.774Z,4.05
2023-01-04T01:57:35.821Z,5.40
2023-01-04T02:00:23.374Z,4.65
2023-01-04T02:03:18.526Z,3.13
2023-01-04T02:05:51.283Z,3.03
2023-01-04T02:08:22.401Z,3.70
2023-01-04T02:10:49.695Z,4.38
2023-01-04T02:13:23.676Z,3.28
2023-01-04T02:18:58.049Z,2.65
2023-01-04T02:21:56.616Z,4.18
2023-01-04T02:24:55.794Z,3.42
2023-01-04T02:27:41.231Z,3.67
2023-01-04T02:30:39.678Z,3.55
2023-01-04T02:33:27.787Z,3.90
2023-01-04T02:36:21.585Z,3.72
2023-01-04T02:39:17.935Z,4.88
2023-01-04T02:42:13.344Z,3.63
2023-01-04T02:45:04.515Z,4.32
2023-01-04T02:47:57.327Z,3.20
2023-01-04T02:50:50.802Z,3.67
2023-01-04T02:53:28.547Z,2.78
2023-01-04T02:56:19.514Z,3.40
2023-01-04T02:59:02.172Z,3.20
2023-01-04T03:02:48.100Z,3.30
2023-01-04T03:06:18.018Z,2.72
2023-01-04T03:08:57.932Z,4.85
2023-01-04T03:11:58.370Z,3.80
2023-01-04T03:14:33.807Z,3.55
2023-01-04T03:17:12.263Z,3.28
2023-01-04T03:19:51.427Z,3.50
2023-01-04T03:22:48.192Z,4.35
2023-01-04T03:25:39.738Z,4.45
2023-01-04T03:28:28.723Z,3.80
2023-01-04T03:31:54.920Z,3.28
2023-01-04T03:34:41.106Z,3.78
2023-01-04T03:37:21.286Z,4.68
2023-01-04T03:40:36.005Z,3.25
2023-01-04T03:43:37.388Z,3.22
2023-01-04T03:46:36.595Z,3.83
2023-01-04T03:49:27.521Z,4.07
2023-01-04T03:51:59.001Z,3.42
2023-01-04T03:54:33.350Z,3.38
2023-01-04T03:57:01.571Z,3.40
2023-01-04T03:59:28.628Z,3.45
2023-01-04T04:01:56.143Z,3.40
2023-01-04T04:04:41.735Z,4.00
2023-01-04T04:07:26.950Z,4.05
2023-01-04T04:09:53.656Z,3.25
2023-01-04T04:12:20.399Z,3.78
2023-01-04T04:14:47.107Z,4.05
2023-01-04T04:17:13.846Z,4.03
2023-01-04T04:19:40.576Z,4.38
2023-01-04T04:22:07.278Z,4.95
2023-01-04T04:24:34.172Z,3.22
2023-01-04T04:27:00.899Z,4.15
2023-01-04T04:29:27.618Z,3.63
2023-01-04T04:31:54.479Z,3.90
2023-01-04T04:34:21.425Z,4.07
2023-01-04T04:36:48.178Z,4.95
2023-01-04T04:39:14.952Z,4.80
2023-01-04T04:41:42.033Z,4.57
2023-01-04T04:44:18.421Z,4.10
2023-01-04T04:46:47.158Z,3.63
2023-01-04T04:49:14.410Z,5.90
2023-01-04T04:51:42.641Z,3.50
2023-01-04T04:54:14.517Z,3.92
2023-01-04T04:56:41.244Z,3.53
2023-01-04T04:59:09.587Z,3.03
2023-01-04T05:01:36.538Z,3.88
2023-01-04T05:04:03.530Z,4.22
2023-01-04T05:06:30.307Z,4.82
2023-01-04T05:08:57.105Z,5.53
2023-01-04T05:11:42.710Z,3.95
2023-01-04T05:14:10.291Z,3.55
2023-01-04T05:16:37.204Z,4.03
2023-01-04T05:19:04.349Z,4.22
2023-01-04T05:21:31.118Z,3.53
2023-01-04T05:23:57.832Z,3.50
2023-01-04T05:26:24.577Z,3.05
2023-01-04T05:28:54.064Z,4.63
2023-01-04T05:31:22.124Z,3.85
2023-01-04T05:33:48.948Z,3.65
2023-01-04T05:36:16.043Z,2.95
2023-01-04T05:38:42.815Z,2.85
2023-01-04T05:41:29.486Z,3.75
2023-01-04T05:43:56.523Z,3.50
2023-01-04T05:46:23.524Z,4.57
2023-01-04T05:48:50.395Z,3.80
2023-01-04T05:51:17.124Z,3.75
2023-01-04T05:53:43.907Z,3.13
2023-01-04T05:56:10.667Z,3.50
2023-01-04T05:58:37.402Z,2.95
2023-01-04T06:01:04.203Z,3.10
2023-01-04T06:03:32.125Z,2.97
2023-01-04T06:05:58.938Z,3.67
2023-01-04T06:08:25.641Z,3.28
2023-01-04T06:10:54.384Z,2.72
2023-01-04T06:13:21.370Z,2.83
2023-01-04T06:15:48.129Z,3.63
2023-01-04T06:18:14.893Z,4.80
2023-01-04T06:20:43.664Z,4.90
2023-01-04T06:23:10.730Z,3.80
2023-01-04T06:25:37.943Z,3.03
2023-01-04T06:28:04.706Z,2.83
2023-01-04T06:30:31.528Z,4.45
2023-01-04T06:32:58.329Z,2.47
2023-01-04T06:35:25.139Z,3.25
2023-01-04T06:37:51.932Z,3.85
2023-01-04T06:40:18.664Z,4.75
2023-01-04T06:42:45.412Z,2.80
2023-01-04T06:45:16.715Z,3.33
2023-01-04T06:47:43.922Z,4.60
2023-01-04T06:50:11.777Z,3.92
2023-01-04T06:52:38.679Z,4.05
2023-01-04T06:55:09.561Z,4.45
2023-01-04T06:57:36.501Z,2.78
2023-01-04T07:00:06.517Z,4.07
2023-01-04T07:02:33.556Z,3.22
2023-01-04T07:05:00.938Z,3.83
2023-01-04T07:07:27.698Z,3.53
2023-01-04T07:09:56.641Z,2.45
2023-01-04T07:12:23.538Z,2.20
2023-01-04T07:14:50.272Z,2.75
2023-01-04T07:17:17.063Z,2.42
2023-01-04T07:19:43.829Z,2.50
2023-01-04T07:22:11.196Z,3.13
2023-01-04T07:24:38.121Z,2.45
2023-01-04T07:27:05.060Z,2.67
2023-01-04T07:29:31.855Z,3.42
2023-01-04T07:31:58.624Z,3.35
2023-01-04T07:34:26.285Z,3.40
2023-01-04T07:36:53.141Z,3.35
2023-01-04T07:39:21.860Z,2.92
2023-01-04T07:41:50.461Z,2.30
2023-01-04T07:44:21.501Z,3.17
2023-01-04T07:46:48.413Z,3.00
2023-01-04T07:49:18.502Z,3.80
2023-01-04T07:51:47.360Z,4.13
2023-01-04T07:54:15.992Z,5.47
2023-01-04T07:56:44.102Z,3.95
2023-01-04T07:59:13.090Z,4.00
2023-01-04T08:01:40.410Z,3.50
2023-01-04T08:04:09.340Z,4.40
2023-01-04T08:06:37.606Z,3.50
2023-01-04T08:09:06.456Z,3.67
2023-01-04T08:11:34.715Z,4.00
2023-01-04T08:14:03.064Z,2.78
2023-01-04T08:16:33.845Z,2.83
2023-01-04T08:19:24.096Z,2.63
2023-01-04T08:21:50.864Z,4.80
2023-01-04T08:24:21.102Z,2.50
2023-01-04T08:26:48.328Z,2.45
2023-01-04T08:29:15.183Z,2.13
2023-01-04T08:31:42.292Z,2.55
2023-01-04T08:34:10.249Z,3.15
2023-01-04T08:36:49.774Z,2.38
2023-01-04T08:39:17.154Z,2.65
2023-01-04T08:42:00.544Z,2.03
2023-01-04T08:44:29.641Z,2.75
2023-01-04T08:46:56.764Z,3.10
2023-01-04T08:49:24.658Z,3.03
2023-01-04T08:51:51.448Z,2.55
2023-01-04T08:54:18.847Z,3.30
2023-01-04T08:56:45.694Z,3.08
2023-01-04T08:59:13.451Z,2.92
2023-01-04T09:01:41.177Z,2.55
2023-01-04T09:04:08.663Z,2.47
2023-01-04T09:06:37.123Z,3.03
2023-01-04T09:09:03.895Z,2.92
2023-01-04T09:11:30.629Z,3.20
2023-01-04T09:14:07.269Z,2.80
2023-01-04T09:16:36.883Z,1.85
2023-01-04T09:19:05.793Z,3.83
2023-01-04T09:21:32.704Z,2.53
2023-01-04T09:23:59.528Z,3.90
2023-01-04T09:26:26.654Z,5.03
2023-01-04T09:28:56.216Z,2.58
2023-01-04T09:31:28.540Z,3.35
2023-01-04T09:34:16.019Z,2.60
2023-01-04T09:36:45.068Z,3.90
2023-01-04T09:39:20.832Z,3.33
2023-01-04T09:41:53.363Z,3.25
2023-01-04T09:47:47.172Z,3.60
2023-01-04T09:50:33.647Z,3.40
2023-01-04T09:53:25.363Z,2.30
2023-01-04T09:55:57.272Z,2.90
2023-01-04T09:58:26.908Z,2.95
2023-01-04T10:01:08.116Z,2.50
2023-01-04T10:03:42.033Z,2.50
2023-01-04T10:06:12.954Z,8.02
2023-01-04T10:08:43.050Z,3.75
2023-01-04T10:11:40.345Z,3.50
2023-01-04T10:14:41.423Z,2.90
2023-01-04T10:24:07.826Z,2.83
2023-01-04T10:26:45.634Z,3.47
2023-01-04T10:29:50.153Z,3.22
2023-01-04T10:32:32.628Z,3.03
2023-01-04T10:34:59.521Z,3.03
2023-01-04T10:37:35.033Z,3.65
2023-01-04T10:40:02.614Z,2.40
2023-01-04T10:42:38.055Z,2.65
2023-01-04T10:45:18.403Z,3.72
2023-01-04T10:48:02.548Z,3.35
2023-01-04T10:51:03.588Z,5.72
2023-01-04T10:53:59.776Z,3.25
2023-01-04T10:56:45.630Z,2.72
2023-01-04T10:59:29.963Z,2.97
2023-01-04T11:04:37.328Z,2.03
2023-01-04T11:07:18.721Z,2.38
2023-01-04T11:10:01.010Z,3.60
2023-01-04T11:12:27.843Z,4.38
2023-01-04T11:14:54.646Z,3.67
2023-01-04T11:17:24.813Z,3.20
2023-01-04T11:19:52.577Z,3.03
2023-01-04T11:22:30.904Z,2.97
2023-01-04T11:28:06.561Z,2.38
2023-01-04T11:30:48.611Z,2.65
2023-01-04T11:33:19.922Z,2.95
2023-01-04T11:35:51.633Z,2.60
2023-01-04T11:38:30.478Z,3.47
2023-01-04T11:41:06.528Z,2.75
2023-01-04T11:43:39.365Z,2.05
2023-01-04T11:46:17.771Z,2.15
2023-01-04T11:48:46.871Z,3.35
2023-01-04T11:51:29.088Z,2.33
2023-01-04T11:54:15.582Z,2.67
2023-01-04T12:00:14.741Z,2.30
2023-01-04T12:05:32.278Z,2.22
2023-01-04T12:07:59.716Z,2.50
2023-01-04T12:10:28.546Z,3.40
2023-01-04T12:12:59.288Z,2.33
2023-01-04T12:15:56.426Z,3.13
2023-01-04T12:18:30.107Z,1.33
2023-01-04T12:20:57.828Z,1.83
2023-01-04T12:23:24.947Z,1.73
2023-01-04T12:25:54.043Z,1.48
2023-01-04T12:28:34.725Z,2.78
2023-01-04T12:31:20.453Z,1.80
2023-01-04T12:34:12.572Z,2.70
2023-01-04T12:36:39.282Z,1.77
2023-01-04T12:39:14.903Z,2.42
2023-01-04T12:41:41.605Z,1.65
2023-01-04T12:44:36.316Z,1.63
2023-01-04T12:47:36.986Z,2.28
2023-01-04T12:50:12.232Z,1.55
2023-01-04T12:55:44.681Z,2.63
2023-01-04T12:58:58.063Z,1.58
2023-01-04T13:01:28.401Z,2.50
2023-01-04T13:04:05.162Z,2.00
2023-01-04T13:06:44.675Z,2.38
2023-01-04T13:09:24.007Z,1.75
2023-01-04T13:12:14.629Z,2.53
2023-01-04T13:14:50.959Z,2.65
2023-01-04T13:17:26.947Z,2.90
2023-01-04T13:19:53.982Z,3.47
2023-01-04T13:22:30.905Z,2.22
2023-01-04T13:25:01.689Z,3.03
2023-01-04T13:27:28.419Z,1.90
2023-01-04T13:29:55.540Z,1.63
2023-01-04T13:32:27.527Z,2.38
2023-01-04T13:35:13.347Z,2.35
2023-01-04T13:37:45.666Z,1.73
2023-01-04T13:40:32.607Z,3.50
2023-01-04T13:43:55.658Z,3.13
2023-01-04T13:46:25.114Z,2.88
2023-01-04T13:49:00.037Z,2.22
2023-01-04T13:51:37.730Z,3.25
2023-01-04T13:54:18.413Z,3.17
2023-01-04T13:56:49.718Z,2.13
2023-01-04T13:59:20.935Z,2.35
2023-01-04T14:01:51.672Z,2.22
2023-01-04T14:04:28.487Z,2.85
2023-01-04T14:06:59.263Z,2.33
2023-01-04T14:09:31.110Z,3.00
2023-01-04T14:12:13.041Z,2.55
2023-01-04T14:14:59.188Z,2.22
2023-01-04T14:17:53.869Z,3.42
2023-01-04T14:20:20.608Z,2.72
2023-01-04T14:22:47.323Z,2.83
2023-01-04T14:25:40.483Z,2.42
2023-01-04T14:28:22.453Z,1.42
2023-01-04T14:30:53.557Z,1.85
2023-01-04T14:33:30.546Z,2.45
2023-01-04T14:36:07.116Z,2.00
2023-01-04T14:38:48.771Z,2.38
2023-01-04T14:41:22.481Z,2.20
2023-01-04T14:44:05.546Z,2.17
2023-01-04T14:46:32.732Z,1.60
2023-01-04T14:48:59.686Z,1.90
2023-01-04T14:51:38.336Z,2.33
2023-01-04T14:54:11.484Z,1.50
2023-01-04T14:56:39.060Z,2.45
2023-01-04T14:59:06.109Z,1.92
2023-01-04T15:01:33.371Z,2.72
2023-01-04T15:04:00.351Z,1.50
2023-01-04T15:06:27.185Z,1.55
2023-01-04T15:08:54.030Z,2.95
2023-01-04T15:11:20.786Z,1.95
2023-01-04T15:13:47.616Z,1.77
2023-01-04T15:16:17.689Z,3.58
2023-01-04T15:18:45.869Z,1.60
2023-01-04T15:21:13.892Z,3.70
2023-01-04T15:23:40.947Z,1.95
2023-01-04T15:26:10.920Z,1.85
2023-01-04T15:28:38.289Z,2.25
2023-01-04T15:31:11.634Z,1.95
2023-01-04T15:33:38.979Z,1.90
2023-01-04T15:36:12.532Z,1.73
2023-01-04T15:38:39.270Z,1.92
2023-01-04T15:41:35.832Z,1.27
2023-01-04T15:44:09.212Z,1.50
2023-01-04T15:46:36.063Z,3.38
2023-01-04T15:49:02.817Z,2.05
2023-01-04T15:51:29.609Z,1.98
2023-01-04T15:53:56.722Z,1.20
2023-01-04T15:56:23.526Z,2.55
2023-01-04T15:58:54.979Z,2.00
2023-01-04T16:01:22.734Z,2.15
2023-01-04T16:03:54.039Z,2.03
2023-01-04T16:06:22.094Z,1.73
2023-01-04T16:08:51.831Z,1.77
2023-01-04T16:11:23.570Z,1.92
2023-01-04T16:13:52.677Z,1.92
2023-01-04T16:16:22.729Z,2.95
2023-01-04T16:18:52.809Z,1.65
2023-01-04T16:21:26.680Z,1.83
2023-01-04T16:24:06.852Z,1.67
2023-01-04T16:26:39.945Z,1.52
2023-01-04T16:29:06.694Z,2.50
2023-01-04T16:31:37.924Z,2.65
2023-01-04T16:34:06.333Z,1.45
2023-01-04T16:36:34.090Z,2.50
2023-01-04T16:39:01.927Z,1.63
2023-01-04T16:41:29.075Z,2.10
2023-01-04T16:43:59.468Z,1.67
2023-01-04T16:46:31.749Z,2.00
2023-01-04T16:49:06.439Z,2.08
2023-01-04T16:51:35.780Z,1.90
2023-01-04T16:54:07.131Z,4.35
2023-01-04T16:56:34.690Z,2.05
2023-01-04T16:59:02.900Z,2.30
2023-01-04T17:01:33.711Z,2.50
2023-01-04T17:04:10.343Z,1.65
2023-01-04T17:06:43.822Z,1.90
2023-01-04T17:09:15.581Z,1.92
2023-01-04T17:14:30.999Z,2.15
2023-01-04T17:16:58.035Z,1.20
2023-01-04T17:19:25.414Z,1.25
2023-01-04T17:21:52.410Z,1.77
2023-01-04T17:24:19.853Z,1.38
2023-01-04T17:26:46.951Z,1.65
2023-01-04T17:29:14.971Z,2.17
2023-01-04T17:31:44.630Z,1.65
2023-01-04T17:34:22.685Z,1.90
2023-01-04T17:36:50.286Z,1.98
2023-01-04T17:39:17.205Z,1.83
2023-01-04T17:41:44.654Z,1.45
2023-01-04T17:44:11.434Z,1.65
2023-01-04T17:46:38.899Z,1.23
2023-01-04T17:49:22.283Z,2.05
2023-01-04T17:51:52.681Z,1.58
2023-01-04T17:54:20.828Z,2.10
2023-01-04T17:56:47.584Z,2.25
2023-01-04T17:59:14.352Z,1.50
2023-01-04T18:01:41.299Z,1.38
2023-01-04T18:04:09.102Z,2.03
2023-01-04T18:06:37.354Z,1.92
2023-01-04T18:09:07.048Z,1.83
2023-01-04T18:11:35.651Z,2.20
2023-01-04T18:14:06.039Z,2.00
2023-01-04T18:16:56.230Z,1.63
2023-01-04T18:19:27.044Z,2.63
2023-01-04T18:21:55.134Z,2.50
2023-01-04T18:24:38.917Z,2.50
2023-01-04T18:29:55.072Z,2.40
2023-01-04T18:32:23.908Z,2.20
2023-01-04T18:34:50.806Z,3.22
2023-01-04T18:37:18.770Z,2.80
2023-01-04T18:39:46.567Z,2.38
2023-01-04T18:42:13.303Z,1.77
2023-01-04T18:44:47.357Z,2.85
2023-01-04T18:47:16.698Z,3.45
2023-01-04T18:49:43.534Z,2.03
2023-01-04T18:52:10.270Z,2.63
2023-01-04T18:54:37.014Z,2.08
2023-01-04T18:57:05.064Z,2.35
2023-01-04T18:59:32.388Z,1.83
2023-01-04T19:02:01.593Z,2.00
2023-01-04T19:04:34.572Z,1.80
2023-01-04T19:07:02.241Z,3.38
2023-01-04T19:09:29.105Z,2.13
2023-01-04T19:11:55.938Z,2.47
2023-01-04T19:14:22.671Z,2.95
2023-01-04T19:16:50.444Z,2.15
2023-01-04T19:19:17.250Z,1.95
2023-01-04T19:21:44.003Z,1.83
2023-01-04T19:24:10.737Z,3.38
2023-01-04T19:26:38.138Z,3.22
2023-01-04T19:29:08.006Z,3.55
2023-01-04T19:31:35.512Z,3.00
2023-01-04T19:34:02.288Z,3.88
2023-01-04T19:36:29.242Z,2.30
2023-01-04T19:38:57.254Z,1.88
2023-01-04T19:41:33.601Z,2.83
2023-01-04T19:44:07.643Z,1.00
2023-01-04T19:46:38.225Z,1.77
2023-01-04T19:49:10.910Z,1.33
2023-01-04T19:51:43.744Z,1.90
2023-01-04T19:54:11.135Z,2.22
2023-01-04T19:56:37.869Z,1.90
2023-01-04T19:59:06.276Z,1.73
2023-01-04T20:01:33.073Z,1.55
2023-01-04T20:03:59.948Z,1.10
2023-01-04T20:06:27.237Z,2.35
2023-01-04T20:08:53.967Z,1.80
2023-01-04T20:11:20.686Z,2.35
2023-01-04T20:13:47.478Z,1.02
2023-01-04T20:16:14.253Z,2.13
2023-01-04T20:18:41.006Z,1.13
2023-01-04T20:21:11.099Z,1.48
2023-01-04T20:23:38.959Z,1.83
2023-01-04T20:26:15.891Z,2.67
2023-01-04T20:28:45.885Z,1.38
2023-01-04T20:31:16.371Z,3.00
2023-01-04T20:33:43.166Z,2.50
2023-01-04T20:36:18.867Z,1.83
2023-01-04T20:38:47.767Z,1.55
2023-01-04T20:41:22.173Z,1.83
2023-01-04T20:43:49.637Z,1.92
2023-01-04T20:46:23.234Z,4.65
2023-01-04T20:48:51.016Z,2.47
2023-01-04T20:51:21.853Z,2.28
2023-01-04T20:53:49.415Z,2.42
2023-01-04T20:56:23.812Z,1.30
2023-01-04T20:58:52.129Z,0.75
2023-01-04T21:01:21.728Z,1.95
2023-01-04T21:03:49.544Z,1.85
2023-01-04T21:06:18.859Z,1.42
2023-01-04T21:08:46.856Z,1.63
2023-01-04T21:11:14.620Z,1.85
2023-01-04T21:13:42.145Z,1.00
2023-01-04T21:16:10.339Z,1.73
2023-01-04T21:18:37.740Z,1.50
2023-01-04T21:21:15.645Z,1.70
2023-01-04T21:23:44.675Z,1.17
2023-01-04T21:26:16.102Z,1.98
2023-01-04T21:28:43.071Z,1.75
2023-01-04T21:31:19.752Z,1.67
2023-01-04T21:33:47.421Z,2.50
2023-01-04T21:36:19.294Z,2.83
2023-01-04T21:38:53.461Z,1.60
2023-01-04T21:41:24.981Z,2.75
2023-01-04T21:43:55.075Z,1.50
2023-01-04T21:46:22.403Z,1.75
2023-01-04T21:48:56.399Z,3.70
2023-01-04T21:53:50.546Z,2.25
2023-01-04T21:56:21.849Z,1.88
2023-01-04T21:58:48.944Z,1.17
2023-01-04T22:01:22.334Z,0.80
2023-01-04T22:03:49.312Z,1.35
2023-01-04T22:06:16.399Z,1.92
2023-01-04T22:08:44.035Z,2.13
2023-01-04T22:11:12.020Z,2.08
2023-01-04T22:13:39.192Z,1.50
2023-01-04T22:16:13.086Z,2.30
2023-01-04T22:21:11.633Z,1.60
2023-01-04T22:23:38.415Z,0.90
2023-01-04T22:26:05.782Z,1.70
2023-01-04T22:28:36.705Z,2.13
2023-01-04T22:31:07.278Z,2.47
2023-01-04T22:33:38.509Z,3.08
2023-01-04T22:36:21.738Z,1.45
2023-01-04T22:38:51.172Z,2.08
2023-01-04T22:41:21.143Z,1.48
2023-01-04T22:43:53.161Z,1.88
2023-01-04T22:46:20.010Z,1.15
2023-01-04T22:48:46.967Z,1.58
2023-01-04T22:51:16.887Z,2.22
2023-01-04T22:53:43.909Z,2.45
2023-01-04T22:56:19.645Z,1.23
2023-01-04T22:58:52.459Z,0.88
2023-01-04T23:01:22.667Z,1.83
2023-01-04T23:03:51.657Z,1.70
2023-01-04T23:06:18.763Z,1.42
2023-01-04T23:08:45.603Z,2.97
2023-01-04T23:11:18.655Z,2.65
2023-01-04T23:13:45.802Z,2.43
2023-01-04T23:16:16.090Z,3.35
2023-01-04T23:18:43.543Z,2.97
2023-01-04T23:21:11.562Z,2.85
2023-01-04T23:23:39.020Z,2.60
2023-01-04T23:26:20.398Z,1.80
2023-01-04T23:28:47.544Z,1.85
2023-01-04T23:31:19.064Z,2.38
2023-01-04T23:33:46.898Z,2.90
2023-01-04T23:36:19.039Z,2.40
2023-01-04T23:38:52.599Z,4.28
2023-01-04T23:41:20.449Z,4.45
2023-01-04T23:43:47.212Z,2.88
2023-01-04T23:46:17.892Z,3.85
2023-01-04T23:48:45.173Z,3.17
2023-01-04T23:51:13.145Z,2.88
2023-01-04T23:53:40.128Z,3.58
2023-01-04T23:56:14.328Z,3.15
2023-01-04T23:58:41.426Z,3.85
